Terminal Aerodrome Forecast
Issued by NWS Greer, SC

Home | Current Version | Previous Version | Text Only | Print | Product List | Glossary On
Versions: 1 2 3 4 5 6 7 8 9 10 11 12 13 14 15 16 17 18 19 20
000
FTUS42 KGSP 282334
TAFGSP
TAF
KGSP 282334Z 2900/2924 24004KT P6SM VCTS BKN060CB BKN120
     FM290200 00000KT P6SM BKN110
     FM290800 00000KT 4SM BR SCT017 SCT250
     FM291300 18003KT P6SM BKN040
     FM291700 14007KT P6SM VCTS FEW045CB BKN050
     FM292100 14008KT P6SM BKN050=

USA.gov is the U.S. government's official web portal to all federal, state and local government web resources and services.